SBCY/CGB METAR and TAF weather

Enter ICAO airport designator
Station Type Date Time Source
SBCY METAR 2021/05/11 01:00 UTC NOAA

SBCY 110100Z 20002KT CAVOK 25/15 Q1015


Station Type Date Time Source
SBCY Decoded METAR 2021/05/11 01:00 UTC NOAA

Cuiaba Aeroporto , Brazil (SBCY) 15-39S 056-06W 182M
May 10, 2021 - 09:00 PM EDT / 2021.05.11 0100 UTC
Wind: from the SSW (200 degrees) at 2 MPH (2 KT):0
Visibility: greater than 7 mile(s):0
Temperature: 77 F (25 C)
Dew Point: 59 F (15 C)
Relative Humidity: 53%
Pressure (altimeter): 29.97 in. Hg (1015 hPa)
ob: SBCY 110100Z 20002KT CAVOK 25/15 Q1015
cycle: 1

Station Type Date Time Source
SBCY TAF 2021/05/11 00:00 UTC NOAA

TAF SBCY 102100Z 1100/1124 21005KT CAVOK TX32/1118Z TN26/1123Z
BECMG 1109/1111 13005KT
BECMG 1113/1115 18005KT
RMK PGY

Example: see airport list